createdAt,value
2018-03-04T00:01:24.326Z,89.80
2018-03-04T00:03:51.345Z,90.20
2018-03-04T00:06:17.912Z,90.20
2018-03-04T00:08:44.543Z,90.40
2018-03-04T00:11:11.118Z,90.30
2018-03-04T00:13:38.045Z,90.60
2018-03-04T00:16:04.665Z,90.60
2018-03-04T00:18:31.229Z,90.50
2018-03-04T00:20:57.793Z,90.30
2018-03-04T00:23:24.540Z,90.60
2018-03-04T00:25:51.191Z,91.10
2018-03-04T00:28:17.841Z,91.20
2018-03-04T00:30:44.810Z,91.70
2018-03-04T00:33:11.411Z,91.70
2018-03-04T00:35:37.951Z,92.00
2018-03-04T00:38:04.525Z,92.20
2018-03-04T00:40:31.110Z,92.50
2018-03-04T00:42:57.736Z,92.40
2018-03-04T00:45:24.387Z,92.40
2018-03-04T00:47:50.950Z,92.90
2018-03-04T00:50:17.493Z,92.90
2018-03-04T00:52:44.078Z,92.90
2018-03-04T00:55:10.650Z,93.20
2018-03-04T00:57:37.190Z,93.40
2018-03-04T01:00:03.813Z,93.60
2018-03-04T01:02:30.757Z,94.10
2018-03-04T01:04:57.674Z,94.20
2018-03-04T01:07:24.233Z,94.20
2018-03-04T01:09:50.808Z,94.20
2018-03-04T01:12:17.714Z,94.20
2018-03-04T01:14:44.389Z,94.20
2018-03-04T01:17:11.495Z,94.40
2018-03-04T01:19:38.038Z,94.70
2018-03-04T01:22:04.979Z,94.90
2018-03-04T01:24:31.913Z,94.80
2018-03-04T01:26:58.437Z,94.80
2018-03-04T01:29:31.858Z,95.20
2018-03-04T01:31:58.427Z,95.20
2018-03-04T01:34:24.988Z,95.00
2018-03-04T01:36:51.986Z,95.30
2018-03-04T01:39:18.578Z,95.30
2018-03-04T01:41:45.117Z,95.00
2018-03-04T01:44:11.674Z,94.90
2018-03-04T01:46:38.237Z,94.90
2018-03-04T01:49:05.137Z,94.60
2018-03-04T01:51:51.442Z,94.60
2018-03-04T01:54:18.093Z,94.40
2018-03-04T01:56:44.622Z,94.30
2018-03-04T01:59:11.217Z,94.20
2018-03-04T02:01:37.817Z,94.20
2018-03-04T02:04:04.349Z,94.50
2018-03-04T02:06:31.294Z,94.30
2018-03-04T02:08:58.230Z,94.60
2018-03-04T02:11:24.770Z,94.60
2018-03-04T02:13:51.387Z,94.70
2018-03-04T02:16:17.946Z,94.50
2018-03-04T02:18:44.481Z,94.30
2018-03-04T02:21:11.047Z,94.30
2018-03-04T02:23:37.617Z,94.30
2018-03-04T02:26:04.169Z,94.30
2018-03-04T02:28:30.742Z,94.00
2018-03-04T02:30:57.691Z,93.90
2018-03-04T02:33:24.658Z,94.10
2018-03-04T02:35:51.601Z,94.10
2018-03-04T02:38:18.543Z,94.00
2018-03-04T02:40:45.149Z,94.00
2018-03-04T02:43:11.715Z,93.90
2018-03-04T02:45:38.296Z,93.90
2018-03-04T02:48:04.817Z,94.00
2018-03-04T02:50:31.463Z,94.00
2018-03-04T02:52:58.114Z,93.70
2018-03-04T02:55:24.642Z,93.40
2018-03-04T02:57:51.201Z,93.10
2018-03-04T03:00:17.773Z,93.00
2018-03-04T03:02:44.330Z,93.00
2018-03-04T03:05:11.270Z,93.40
2018-03-04T03:07:37.855Z,93.40
2018-03-04T03:10:04.406Z,93.30
2018-03-04T03:12:30.961Z,93.30
2018-03-04T03:14:57.518Z,93.50
2018-03-04T03:17:24.046Z,93.40
2018-03-04T03:19:50.606Z,93.30
2018-03-04T03:22:17.169Z,93.30
2018-03-04T03:24:43.705Z,93.50
2018-03-04T03:27:10.286Z,93.70
2018-03-04T03:29:36.877Z,93.40
2018-03-04T03:32:03.475Z,93.40
2018-03-04T03:34:30.098Z,93.60
2018-03-04T03:36:56.661Z,93.50
2018-03-04T03:39:23.202Z,93.80
2018-03-04T03:41:49.772Z,93.90
2018-03-04T03:44:16.521Z,93.90
2018-03-04T03:46:43.054Z,94.20
2018-03-04T03:49:09.621Z,94.30
2018-03-04T03:51:36.193Z,93.90
2018-03-04T03:54:02.721Z,93.90
2018-03-04T03:56:29.326Z,94.10
2018-03-04T03:58:55.889Z,94.20
2018-03-04T04:01:22.422Z,94.30
2018-03-04T04:03:48.997Z,94.20
2018-03-04T04:06:15.561Z,94.60
2018-03-04T04:08:42.094Z,94.80
2018-03-04T04:11:08.653Z,94.60
2018-03-04T04:13:35.214Z,94.60
2018-03-04T04:16:02.134Z,95.00
2018-03-04T04:18:28.696Z,95.00
2018-03-04T04:20:55.285Z,95.30
2018-03-04T04:23:22.177Z,95.30
2018-03-04T04:25:48.817Z,95.30
2018-03-04T04:28:15.379Z,95.50
2018-03-04T04:30:42.009Z,95.30
2018-03-04T04:33:08.582Z,95.80
2018-03-04T04:35:35.180Z,95.70
2018-03-04T04:38:02.094Z,95.40
2018-03-04T04:40:28.655Z,95.40
2018-03-04T04:42:55.257Z,95.20
2018-03-04T04:45:21.805Z,95.30
2018-03-04T04:47:48.395Z,95.60
2018-03-04T04:50:15.011Z,95.50
2018-03-04T04:52:41.577Z,95.40
2018-03-04T04:55:08.145Z,95.50
2018-03-04T04:57:34.742Z,95.50
2018-03-04T05:00:01.274Z,95.50
2018-03-04T05:02:27.965Z,95.40
2018-03-04T05:04:54.525Z,95.60
2018-03-04T05:07:21.165Z,95.40
2018-03-04T05:09:47.724Z,95.40
2018-03-04T05:12:14.334Z,95.40
2018-03-04T05:14:41.012Z,95.70
2018-03-04T05:17:07.580Z,95.90
2018-03-04T05:19:34.138Z,95.70
2018-03-04T05:22:01.028Z,95.40
2018-03-04T05:24:27.598Z,95.40
2018-03-04T05:26:54.230Z,95.50
2018-03-04T05:29:20.806Z,95.70
2018-03-04T05:31:47.366Z,95.80
2018-03-04T05:34:14.003Z,95.60
2018-03-04T05:36:40.550Z,95.50
2018-03-04T05:39:07.121Z,95.40
2018-03-04T05:41:34.058Z,95.50
2018-03-04T05:44:00.675Z,95.50
2018-03-04T05:46:27.238Z,95.60
2018-03-04T05:48:53.798Z,95.70
2018-03-04T05:51:21.390Z,95.70
2018-03-04T05:53:47.953Z,95.60
2018-03-04T05:56:14.922Z,95.10
2018-03-04T05:58:41.553Z,95.10
2018-03-04T06:01:08.532Z,94.80
2018-03-04T06:03:35.197Z,94.70
2018-03-04T06:06:01.779Z,95.00
2018-03-04T06:08:28.346Z,95.40
2018-03-04T06:10:54.901Z,95.70
2018-03-04T06:13:21.810Z,95.50
2018-03-04T06:15:48.448Z,95.50
2018-03-04T06:18:15.005Z,95.40
2018-03-04T06:20:41.571Z,95.00
2018-03-04T06:23:08.139Z,95.00
2018-03-04T06:25:34.697Z,95.40
2018-03-04T06:28:01.598Z,95.70
2018-03-04T06:30:28.158Z,95.70
2018-03-04T06:32:54.721Z,95.50
2018-03-04T06:35:21.656Z,94.80
2018-03-04T06:37:48.230Z,94.60
2018-03-04T06:40:14.868Z,94.60
2018-03-04T06:42:41.397Z,94.10
2018-03-04T06:45:07.965Z,94.00
2018-03-04T06:47:34.529Z,93.40
2018-03-04T06:50:01.089Z,93.10
2018-03-04T06:52:27.677Z,92.10
2018-03-04T06:54:54.238Z,92.40
2018-03-04T06:57:20.775Z,91.90
2018-03-04T06:59:47.337Z,91.60
2018-03-04T07:02:13.903Z,90.90
2018-03-04T07:04:41.365Z,90.30
2018-03-04T07:07:07.983Z,90.10
2018-03-04T07:09:34.558Z,90.80
2018-03-04T07:12:01.206Z,90.30
2018-03-04T07:14:27.766Z,89.60
2018-03-04T07:16:54.830Z,89.60
2018-03-04T07:19:21.583Z,88.90
2018-03-04T07:21:48.186Z,88.00
2018-03-04T07:24:14.744Z,87.80
2018-03-04T07:26:41.266Z,88.90
2018-03-04T07:29:07.854Z,89.90
2018-03-04T07:31:34.437Z,89.50
2018-03-04T07:34:01.342Z,88.40
2018-03-04T07:36:27.945Z,88.40
2018-03-04T07:38:54.884Z,87.00
2018-03-04T07:41:21.465Z,87.00
2018-03-04T07:43:48.025Z,86.60
2018-03-04T07:46:14.598Z,86.70
2018-03-04T07:48:41.137Z,86.10
2018-03-04T07:51:07.709Z,86.20
2018-03-04T07:53:34.321Z,85.70
2018-03-04T07:56:00.890Z,85.20
2018-03-04T07:58:27.469Z,85.40
2018-03-04T08:00:54.035Z,84.80
2018-03-04T08:03:20.586Z,85.30
2018-03-04T08:05:47.526Z,84.80
2018-03-04T08:08:14.138Z,84.80
2018-03-04T08:10:40.693Z,84.60
2018-03-04T08:13:07.254Z,85.30
2018-03-04T08:15:33.817Z,85.30
2018-03-04T08:18:00.724Z,85.10
2018-03-04T08:20:27.296Z,85.20
2018-03-04T08:22:53.936Z,84.70
2018-03-04T08:25:28.881Z,84.40
2018-03-04T08:28:07.626Z,84.60
2018-03-04T08:30:34.195Z,83.60
2018-03-04T08:33:01.146Z,83.50
2018-03-04T08:35:27.710Z,83.60
2018-03-04T08:37:54.637Z,82.60
2018-03-04T08:40:21.291Z,82.60
2018-03-04T08:42:47.818Z,83.40
2018-03-04T08:45:14.373Z,82.60
2018-03-04T08:47:40.933Z,82.10
2018-03-04T08:50:07.474Z,81.20
2018-03-04T08:52:34.045Z,81.10
2018-03-04T08:55:00.973Z,82.30
2018-03-04T08:57:27.510Z,82.30
2018-03-04T08:59:54.074Z,81.80
2018-03-04T09:02:20.642Z,81.10
2018-03-04T09:04:47.559Z,81.40
2018-03-04T09:07:14.125Z,81.40
2018-03-04T09:09:40.751Z,80.90
2018-03-04T09:12:07.375Z,80.40
2018-03-04T09:14:33.953Z,80.10
2018-03-04T09:17:00.535Z,80.40
2018-03-04T09:19:27.449Z,78.60
2018-03-04T09:21:54.014Z,78.60
2018-03-04T09:24:20.587Z,78.20
2018-03-04T09:26:47.118Z,78.20
2018-03-04T09:29:13.689Z,78.60
2018-03-04T09:31:40.267Z,78.30
2018-03-04T09:34:06.856Z,77.60
2018-03-04T09:36:33.453Z,78.00
2018-03-04T09:39:00.022Z,78.10
2018-03-04T09:41:26.612Z,76.90
2018-03-04T09:43:53.206Z,76.70
2018-03-04T09:46:19.884Z,77.00
2018-03-04T09:48:46.417Z,77.90
2018-03-04T09:51:12.997Z,77.40
2018-03-04T09:53:39.600Z,76.50
2018-03-04T09:56:06.139Z,76.80
2018-03-04T09:58:32.710Z,76.40
2018-03-04T10:00:59.286Z,76.80
2018-03-04T10:03:25.815Z,76.60
2018-03-04T10:05:52.397Z,76.60
2018-03-04T10:08:19.334Z,75.70
2018-03-04T10:10:45.862Z,75.70
2018-03-04T10:13:12.422Z,75.90
2018-03-04T10:15:38.997Z,76.40
2018-03-04T10:18:05.893Z,76.60
2018-03-04T10:20:32.461Z,76.60
2018-03-04T10:22:59.030Z,75.20
2018-03-04T10:25:25.561Z,76.00
2018-03-04T10:27:52.125Z,75.60
2018-03-04T10:30:18.696Z,75.40
2018-03-04T10:32:45.609Z,75.60
2018-03-04T10:35:12.331Z,75.60
2018-03-04T10:37:38.966Z,75.60
2018-03-04T10:40:05.509Z,75.40
2018-03-04T10:42:32.140Z,75.10
2018-03-04T10:44:59.130Z,75.90
2018-03-04T10:47:25.925Z,75.90
2018-03-04T10:49:52.562Z,76.00
2018-03-04T10:52:19.285Z,75.90
2018-03-04T10:54:45.809Z,75.70
2018-03-04T10:57:12.374Z,76.20
2018-03-04T10:59:38.969Z,75.50
2018-03-04T11:05:15.083Z,75.20
2018-03-04T11:07:41.898Z,75.30
2018-03-04T11:10:08.687Z,75.00
2018-03-04T11:12:35.261Z,74.80
2018-03-04T11:15:01.992Z,74.10
2018-03-04T11:17:28.943Z,74.10
2018-03-04T11:19:55.877Z,74.40
2018-03-04T11:22:22.450Z,74.40
2018-03-04T11:24:49.896Z,73.60
2018-03-04T11:27:16.449Z,73.60
2018-03-04T11:29:43.213Z,74.30
2018-03-04T11:32:10.214Z,73.30
2018-03-04T11:34:36.881Z,73.30
2018-03-04T11:37:03.467Z,73.30
2018-03-04T11:39:30.570Z,72.60
2018-03-04T11:41:57.361Z,72.60
2018-03-04T11:44:23.957Z,72.80
2018-03-04T11:46:50.573Z,72.20
2018-03-04T11:49:17.123Z,72.50
2018-03-04T11:51:43.693Z,71.80
2018-03-04T11:54:10.637Z,72.00
2018-03-04T11:56:37.536Z,70.70
2018-03-04T11:59:04.106Z,70.70
2018-03-04T12:01:30.697Z,70.80
2018-03-04T12:03:57.625Z,71.00
2018-03-04T12:06:24.209Z,71.00
2018-03-04T12:08:50.850Z,70.70
2018-03-04T12:11:17.433Z,70.00
2018-03-04T12:13:44.010Z,70.30
2018-03-04T12:16:10.584Z,70.50
2018-03-04T12:18:37.490Z,70.10
2018-03-04T12:21:04.071Z,70.10
2018-03-04T12:23:30.645Z,70.00
2018-03-04T12:25:57.566Z,68.70
2018-03-04T12:28:24.149Z,68.70
2018-03-04T12:30:51.120Z,68.30
2018-03-04T12:33:17.693Z,68.30
2018-03-04T12:35:44.265Z,68.40
2018-03-04T12:38:10.874Z,68.60
2018-03-04T12:40:37.456Z,68.80
2018-03-04T12:43:04.037Z,68.90
2018-03-04T12:45:30.993Z,68.10
2018-03-04T12:47:57.910Z,68.00
2018-03-04T12:50:24.493Z,68.00
2018-03-04T12:52:51.438Z,66.40
2018-03-04T12:55:17.977Z,66.40
2018-03-04T12:57:44.569Z,66.90
2018-03-04T13:00:11.158Z,67.60
2018-03-04T13:02:37.701Z,67.70
2018-03-04T13:05:04.283Z,67.40
2018-03-04T13:07:31.282Z,68.00
2018-03-04T13:09:57.839Z,68.00
2018-03-04T13:12:24.412Z,68.10
2018-03-04T13:14:51.005Z,68.10
2018-03-04T13:17:17.704Z,67.20
2018-03-04T13:19:44.230Z,67.90
2018-03-04T13:22:17.672Z,67.60
2018-03-04T13:24:44.248Z,67.10
2018-03-04T13:27:11.198Z,66.70
2018-03-04T13:29:38.104Z,67.50
2018-03-04T13:32:04.685Z,67.50
2018-03-04T13:34:31.270Z,67.50
2018-03-04T13:36:57.810Z,66.10
2018-03-04T13:39:24.781Z,66.60
2018-03-04T13:41:51.366Z,66.60
2018-03-04T13:44:17.930Z,66.60
2018-03-04T13:46:44.514Z,66.90
2018-03-04T13:49:11.090Z,66.10
2018-03-04T13:51:37.638Z,66.30
2018-03-04T13:54:04.223Z,66.60
2018-03-04T13:56:30.803Z,67.50
2018-03-04T13:58:57.817Z,67.00
2018-03-04T14:01:24.392Z,67.00
2018-03-04T14:03:51.342Z,67.40
2018-03-04T14:06:17.898Z,67.40
2018-03-04T14:08:44.857Z,67.20
2018-03-04T14:11:11.802Z,67.00
2018-03-04T14:13:38.742Z,66.80
2018-03-04T14:16:05.316Z,66.80
2018-03-04T14:18:31.885Z,67.70
2018-03-04T14:20:58.441Z,67.50
2018-03-04T14:23:25.042Z,66.90
2018-03-04T14:25:51.624Z,67.10
2018-03-04T14:28:18.165Z,67.10
2018-03-04T14:30:44.742Z,67.60
2018-03-04T14:33:11.324Z,67.70
2018-03-04T14:35:37.889Z,67.60
2018-03-04T14:38:04.881Z,67.60
2018-03-04T14:40:31.454Z,67.60
2018-03-04T14:42:57.994Z,67.80
2018-03-04T14:45:24.577Z,67.60
2018-03-04T14:47:51.162Z,67.00
2018-03-04T14:50:17.698Z,68.10
2018-03-04T14:52:46.700Z,68.60
2018-03-04T14:55:13.278Z,68.60
2018-03-04T14:57:39.827Z,68.60
2018-03-04T15:00:06.496Z,68.80
2018-03-04T15:02:33.085Z,68.70
2018-03-04T15:04:59.988Z,69.20
2018-03-04T15:07:26.565Z,69.20
2018-03-04T15:09:53.166Z,69.30
2018-03-04T15:12:19.718Z,69.10
2018-03-04T15:14:46.298Z,69.00
2018-03-04T15:17:12.892Z,69.40
2018-03-04T15:19:39.438Z,69.60
2018-03-04T15:22:06.386Z,69.90
2018-03-04T15:24:33.330Z,70.00
2018-03-04T15:26:59.869Z,70.10
2018-03-04T15:29:26.448Z,70.00
2018-03-04T15:31:53.405Z,70.90
2018-03-04T15:34:20.322Z,71.00
2018-03-04T15:36:46.887Z,71.00
2018-03-04T15:39:13.510Z,71.40
2018-03-04T15:41:40.057Z,72.00
2018-03-04T15:44:06.646Z,72.60
2018-03-04T15:46:33.590Z,72.50
2018-03-04T15:49:00.178Z,72.50
2018-03-04T15:51:26.772Z,73.50
2018-03-04T15:53:53.425Z,74.00
2018-03-04T15:56:19.958Z,74.50
2018-03-04T15:58:47.459Z,74.40
2018-03-04T16:01:16.336Z,75.10
2018-03-04T16:03:42.871Z,75.10
2018-03-04T16:06:09.484Z,75.10
2018-03-04T16:08:36.195Z,75.10
2018-03-04T16:11:02.742Z,75.10
2018-03-04T16:13:29.317Z,75.30
2018-03-04T16:15:56.260Z,76.00
2018-03-04T16:18:22.788Z,76.00
2018-03-04T16:20:49.365Z,76.40
2018-03-04T16:23:16.306Z,76.70
2018-03-04T16:25:43.210Z,77.20
2018-03-04T16:28:09.782Z,77.20
2018-03-04T16:30:36.354Z,77.20
2018-03-04T16:33:02.894Z,77.40
2018-03-04T16:35:29.460Z,77.60
2018-03-04T16:37:56.394Z,77.60
2018-03-04T16:40:22.992Z,77.60
2018-03-04T16:42:49.571Z,77.90
2018-03-04T16:45:16.971Z,77.90
2018-03-04T16:47:43.890Z,78.20
2018-03-04T16:50:10.461Z,78.20
2018-03-04T16:52:37.038Z,78.40
2018-03-04T16:55:03.581Z,78.80
2018-03-04T16:57:30.578Z,79.00
2018-03-04T16:59:57.146Z,79.00
2018-03-04T17:02:23.679Z,79.20
2018-03-04T17:04:50.245Z,79.70
2018-03-04T17:07:16.813Z,79.70
2018-03-04T17:09:43.346Z,79.50
2018-03-04T17:12:09.930Z,80.00
2018-03-04T17:14:36.867Z,80.50
2018-03-04T17:17:03.901Z,80.50
2018-03-04T17:19:30.481Z,80.60
2018-03-04T17:21:57.437Z,81.00
2018-03-04T17:24:31.298Z,80.90
2018-03-04T17:26:57.892Z,80.90
2018-03-04T17:29:24.846Z,81.10
2018-03-04T17:31:51.824Z,81.00
2018-03-04T17:34:18.431Z,81.10
2018-03-04T17:36:44.967Z,81.40
2018-03-04T17:39:12.398Z,81.50
2018-03-04T17:41:38.973Z,81.40
2018-03-04T17:44:05.517Z,81.60
2018-03-04T17:46:32.105Z,81.50
2018-03-04T17:48:58.682Z,81.40
2018-03-04T17:51:26.379Z,81.30
2018-03-04T17:53:52.961Z,81.30
2018-03-04T17:56:19.625Z,81.20
2018-03-04T17:58:46.200Z,81.20
2018-03-04T18:01:13.471Z,81.40
2018-03-04T18:03:40.045Z,81.40
2018-03-04T18:06:06.793Z,81.50
2018-03-04T18:08:33.639Z,81.40
2018-03-04T18:11:01.399Z,81.10
2018-03-04T18:13:28.270Z,81.40
2018-03-04T18:15:55.176Z,81.40
2018-03-04T18:18:22.619Z,81.40
2018-03-04T18:20:49.748Z,81.40
2018-03-04T18:23:16.330Z,81.30
2018-03-04T18:25:42.897Z,81.50
2018-03-04T18:28:09.724Z,81.60
2018-03-04T18:30:36.282Z,81.60
2018-03-04T18:33:02.850Z,81.50
2018-03-04T18:35:29.477Z,81.30
2018-03-04T18:37:56.082Z,81.40
2018-03-04T18:40:23.718Z,81.40
2018-03-04T18:42:50.250Z,81.50
2018-03-04T18:45:16.869Z,81.60
2018-03-04T18:47:43.429Z,81.50
2018-03-04T18:50:10.010Z,81.60
2018-03-04T18:52:36.594Z,81.80
2018-03-04T18:55:03.209Z,81.60
2018-03-04T18:57:29.837Z,81.40
2018-03-04T18:59:56.802Z,81.80
2018-03-04T19:02:23.414Z,81.80
2018-03-04T19:04:49.957Z,82.10
2018-03-04T19:07:16.638Z,81.70
2018-03-04T19:09:45.028Z,82.30
2018-03-04T19:12:11.695Z,81.70
2018-03-04T19:14:53.179Z,81.70
2018-03-04T19:17:20.699Z,81.90
2018-03-04T19:19:48.533Z,82.00
2018-03-04T19:22:15.106Z,82.00
2018-03-04T19:24:42.046Z,82.20
2018-03-04T19:27:08.577Z,82.20
2018-03-04T19:29:35.554Z,82.90
2018-03-04T19:32:02.125Z,82.90
2018-03-04T19:34:29.354Z,82.90
2018-03-04T19:36:56.913Z,82.90
2018-03-04T19:39:23.518Z,83.10
2018-03-04T19:41:50.108Z,83.10
2018-03-04T19:44:17.353Z,83.20
2018-03-04T19:46:45.645Z,83.20
2018-03-04T19:49:12.181Z,82.90
2018-03-04T19:51:39.573Z,82.80
2018-03-04T19:54:06.150Z,82.90
2018-03-04T19:56:33.987Z,82.50
2018-03-04T19:59:00.530Z,82.50
2018-03-04T20:01:27.687Z,82.30
2018-03-04T20:03:54.621Z,82.50
2018-03-04T20:06:21.192Z,82.40
2018-03-04T20:08:47.757Z,82.40
2018-03-04T20:11:14.593Z,82.00
2018-03-04T20:13:41.197Z,82.20
2018-03-04T20:16:08.582Z,82.10
2018-03-04T20:18:35.368Z,82.10
2018-03-04T20:21:01.939Z,82.10
2018-03-04T20:23:30.153Z,82.00
2018-03-04T20:25:57.709Z,82.00
2018-03-04T20:28:24.283Z,82.00
2018-03-04T20:30:51.613Z,82.20
2018-03-04T20:33:19.890Z,81.90
2018-03-04T20:35:46.459Z,82.20
2018-03-04T20:38:13.398Z,82.40
2018-03-04T20:40:39.962Z,82.40
2018-03-04T20:43:06.906Z,82.50
2018-03-04T20:45:33.473Z,82.50
2018-03-04T20:48:00.420Z,81.90
2018-03-04T20:50:27.370Z,82.40
2018-03-04T20:52:54.452Z,82.40
2018-03-04T20:55:21.370Z,82.60
2018-03-04T20:57:49.069Z,82.60
2018-03-04T21:00:15.629Z,82.20
2018-03-04T21:02:42.533Z,82.80
2018-03-04T21:05:09.882Z,82.80
2018-03-04T21:07:36.530Z,83.10
2018-03-04T21:10:03.097Z,83.00
2018-03-04T21:12:29.665Z,82.40
2018-03-04T21:14:56.234Z,82.70
2018-03-04T21:17:23.231Z,82.80
2018-03-04T21:19:49.908Z,82.80
2018-03-04T21:22:16.529Z,83.20
2018-03-04T21:24:43.058Z,83.70
2018-03-04T21:27:09.626Z,84.30
2018-03-04T21:29:36.188Z,84.00
2018-03-04T21:32:02.743Z,83.90
2018-03-04T21:34:29.313Z,83.70
2018-03-04T21:36:55.880Z,83.70
2018-03-04T21:39:22.781Z,83.50
2018-03-04T21:41:49.378Z,83.40
2018-03-04T21:44:16.320Z,83.60
2018-03-04T21:46:42.851Z,83.60
2018-03-04T21:49:09.414Z,83.70
2018-03-04T21:51:35.999Z,83.50
2018-03-04T21:54:02.532Z,83.60
2018-03-04T21:56:29.526Z,83.50
2018-03-04T21:58:56.106Z,83.50
2018-03-04T22:01:22.655Z,83.80
2018-03-04T22:03:49.225Z,83.50
2018-03-04T22:06:16.165Z,84.00
2018-03-04T22:08:42.698Z,84.00
2018-03-04T22:11:09.273Z,84.00
2018-03-04T22:13:36.221Z,83.70
2018-03-04T22:16:02.748Z,83.70
2018-03-04T22:18:29.316Z,84.30
2018-03-04T22:20:55.902Z,84.60
2018-03-04T22:23:22.441Z,84.90
2018-03-04T22:25:49.021Z,84.70
2018-03-04T22:28:15.586Z,84.10
2018-03-04T22:30:42.117Z,83.70
2018-03-04T22:33:08.691Z,83.90
2018-03-04T22:35:35.259Z,83.90
2018-03-04T22:38:02.178Z,83.80
2018-03-04T22:40:28.782Z,83.80
2018-03-04T22:42:55.350Z,83.80
2018-03-04T22:45:21.945Z,83.70
2018-03-04T22:47:48.493Z,83.60
2018-03-04T22:50:15.063Z,83.20
2018-03-04T22:52:41.966Z,82.90
2018-03-04T22:55:08.550Z,82.90
2018-03-04T22:57:35.494Z,83.20
2018-03-04T23:00:02.059Z,83.20
2018-03-04T23:02:28.992Z,83.30
2018-03-04T23:04:55.578Z,83.30
2018-03-04T23:07:22.481Z,82.90
2018-03-04T23:09:49.046Z,82.90
2018-03-04T23:12:15.622Z,83.20
2018-03-04T23:14:42.534Z,83.40
2018-03-04T23:17:09.212Z,83.40
2018-03-04T23:19:35.874Z,84.00
2018-03-04T23:22:02.786Z,85.60
2018-03-04T23:24:29.343Z,85.60
2018-03-04T23:26:55.897Z,85.20
2018-03-04T23:29:22.429Z,85.60
2018-03-04T23:31:49.005Z,85.70
2018-03-04T23:34:15.945Z,86.30
2018-03-04T23:36:42.487Z,86.30
2018-03-04T23:39:09.063Z,86.40
2018-03-04T23:41:36.036Z,86.50
2018-03-04T23:44:02.610Z,86.50
2018-03-04T23:46:29.177Z,87.20
2018-03-04T23:48:55.733Z,87.00
2018-03-04T23:51:22.261Z,87.00
2018-03-04T23:53:48.834Z,87.10
2018-03-04T23:56:15.401Z,86.60
2018-03-04T23:58:42.310Z,86.20
